createdAt,value
2024-01-15T00:00:48.058Z,58.51
2024-01-15T00:02:50.438Z,58.07
2024-01-15T00:04:52.819Z,57.84
2024-01-15T00:06:55.361Z,58.02
2024-01-15T00:08:59.559Z,58.08
2024-01-15T00:11:01.905Z,58.05
2024-01-15T00:13:04.371Z,58.08
2024-01-15T00:15:07.259Z,57.46
2024-01-15T00:17:09.590Z,57.81
2024-01-15T00:19:14.316Z,57.88
2024-01-15T00:21:17.331Z,57.53
2024-01-15T00:23:19.643Z,57.96
2024-01-15T00:25:22.020Z,57.88
2024-01-15T00:27:25.138Z,57.96
2024-01-15T00:29:27.517Z,57.74
2024-01-15T00:31:31.285Z,57.44
2024-01-15T00:33:34.253Z,57.56
2024-01-15T00:35:36.968Z,57.78
2024-01-15T00:37:39.320Z,57.62
2024-01-15T00:39:41.854Z,57.70
2024-01-15T00:41:44.398Z,57.01
2024-01-15T00:43:47.455Z,57.37
2024-01-15T00:45:49.760Z,57.57
2024-01-15T00:47:52.262Z,57.20
2024-01-15T00:49:54.584Z,57.42
2024-01-15T00:51:56.986Z,57.52
2024-01-15T00:53:59.411Z,57.08
2024-01-15T00:56:01.940Z,56.92
2024-01-15T00:58:04.546Z,56.76
2024-01-15T01:00:08.136Z,57.21
2024-01-15T01:02:10.588Z,56.93
2024-01-15T01:04:13.339Z,56.75
2024-01-15T01:06:15.870Z,57.15
2024-01-15T01:08:18.303Z,56.66
2024-01-15T01:10:20.750Z,56.89
2024-01-15T01:12:23.143Z,56.67
2024-01-15T01:14:25.617Z,56.59
2024-01-15T01:16:28.058Z,56.58
2024-01-15T01:18:30.545Z,56.85
2024-01-15T01:20:33.177Z,56.31
2024-01-15T01:22:35.677Z,56.47
2024-01-15T01:24:38.014Z,56.50
2024-01-15T01:26:40.489Z,56.10
2024-01-15T01:28:42.752Z,56.30
2024-01-15T01:30:45.419Z,56.31
2024-01-15T01:32:47.996Z,56.29
2024-01-15T01:34:50.619Z,56.43
2024-01-15T01:36:52.984Z,55.31
2024-01-15T01:38:55.437Z,56.02
2024-01-15T01:40:58.256Z,56.01
2024-01-15T01:43:00.486Z,56.00
2024-01-15T01:45:02.893Z,56.11
2024-01-15T01:47:06.092Z,56.11
2024-01-15T01:49:10.489Z,55.66
2024-01-15T01:51:13.586Z,55.63
2024-01-15T01:53:16.313Z,55.86
2024-01-15T01:55:20.530Z,55.72
2024-01-15T01:57:23.050Z,55.81
2024-01-15T01:59:28.137Z,55.86
2024-01-15T02:01:31.920Z,55.90
2024-01-15T02:03:34.720Z,55.88
2024-01-15T02:05:37.769Z,55.79
2024-01-15T02:07:40.067Z,55.75
2024-01-15T02:09:42.994Z,55.63
2024-01-15T02:11:47.716Z,55.82
2024-01-15T02:13:50.196Z,55.44
2024-01-15T02:15:52.442Z,55.58
2024-01-15T02:17:59.519Z,55.59
2024-01-15T02:20:02.133Z,55.66
2024-01-15T02:22:04.693Z,55.49
2024-01-15T02:24:07.220Z,55.37
2024-01-15T02:26:10.485Z,55.50
2024-01-15T02:28:14.654Z,55.42
2024-01-15T02:30:17.435Z,55.44
2024-01-15T02:32:19.971Z,55.44
2024-01-15T02:34:22.325Z,55.51
2024-01-15T02:36:25.214Z,55.88
2024-01-15T02:38:27.487Z,55.66
2024-01-15T02:40:29.853Z,55.50
2024-01-15T02:42:32.117Z,55.77
2024-01-15T02:44:34.655Z,55.65
2024-01-15T02:46:36.940Z,55.17
2024-01-15T02:48:39.356Z,55.48
2024-01-15T02:50:41.675Z,55.74
2024-01-15T02:52:44.301Z,55.22
2024-01-15T02:54:46.642Z,55.19
2024-01-15T02:56:49.049Z,55.48
2024-01-15T02:58:51.326Z,55.70
2024-01-15T03:00:53.723Z,55.47
2024-01-15T03:02:56.208Z,55.31
2024-01-15T03:04:59.097Z,55.22
2024-01-15T03:07:01.596Z,55.38
2024-01-15T03:09:05.127Z,55.15
2024-01-15T03:11:07.528Z,54.95
2024-01-15T03:13:09.845Z,55.34
2024-01-15T03:15:12.374Z,55.54
2024-01-15T03:17:14.716Z,55.39
2024-01-15T03:19:17.156Z,55.06
2024-01-15T03:21:19.772Z,55.24
2024-01-15T03:23:22.119Z,54.98
2024-01-15T03:25:24.426Z,54.97
2024-01-15T03:27:27.467Z,55.07
2024-01-15T03:29:29.844Z,55.13
2024-01-15T03:31:32.317Z,55.14
2024-01-15T03:33:34.717Z,54.88
2024-01-15T03:35:37.178Z,55.12
2024-01-15T03:37:39.614Z,55.14
2024-01-15T03:39:42.043Z,55.55
2024-01-15T03:41:44.518Z,55.17
2024-01-15T03:43:46.868Z,55.37
2024-01-15T03:45:49.278Z,55.70
2024-01-15T03:47:51.771Z,56.05
2024-01-15T03:49:54.253Z,55.98
2024-01-15T03:51:56.601Z,55.89
2024-01-15T03:53:59.089Z,55.80
2024-01-15T03:56:01.380Z,55.79
2024-01-15T03:58:03.792Z,55.96
2024-01-15T04:00:06.913Z,55.87
2024-01-15T04:02:09.240Z,56.27
2024-01-15T04:04:13.250Z,56.10
2024-01-15T04:06:17.438Z,56.02
2024-01-15T04:08:20.040Z,56.26
2024-01-15T04:10:22.553Z,56.30
2024-01-15T04:12:24.781Z,56.19
2024-01-15T04:14:27.244Z,55.94
2024-01-15T04:16:29.577Z,55.92
2024-01-15T04:18:31.922Z,56.27
2024-01-15T04:20:34.236Z,55.50
2024-01-15T04:22:37.403Z,55.32
2024-01-15T04:24:39.965Z,55.25
2024-01-15T04:26:42.335Z,55.02
2024-01-15T04:28:44.611Z,55.19
2024-01-15T04:30:47.128Z,55.06
2024-01-15T04:32:49.582Z,54.89
2024-01-15T04:34:52.110Z,54.84
2024-01-15T04:36:54.486Z,55.52
2024-01-15T04:38:56.820Z,55.03
2024-01-15T04:40:59.071Z,54.56
2024-01-15T04:43:01.517Z,54.94
2024-01-15T04:45:04.995Z,54.74
2024-01-15T04:47:07.702Z,54.92
2024-01-15T04:49:10.184Z,54.59
2024-01-15T04:51:13.057Z,55.17
2024-01-15T04:53:15.551Z,55.02
2024-01-15T04:55:17.990Z,54.83
2024-01-15T04:57:20.390Z,55.12
2024-01-15T04:59:22.856Z,55.18
2024-01-15T05:01:25.282Z,55.28
2024-01-15T05:03:27.933Z,54.97
2024-01-15T05:05:30.381Z,54.69
2024-01-15T05:07:32.805Z,55.22
2024-01-15T05:09:35.508Z,54.87
2024-01-15T05:11:37.931Z,54.96
2024-01-15T05:13:40.357Z,55.17
2024-01-15T05:15:42.793Z,55.22
2024-01-15T05:17:45.173Z,55.06
2024-01-15T05:19:47.745Z,54.83
2024-01-15T05:21:50.107Z,55.09
2024-01-15T05:23:52.636Z,55.12
2024-01-15T05:25:54.981Z,55.01
2024-01-15T05:27:57.525Z,55.12
2024-01-15T05:29:59.990Z,55.01
2024-01-15T05:32:02.954Z,55.13
2024-01-15T05:34:05.710Z,55.01
2024-01-15T05:36:08.232Z,55.46
2024-01-15T05:38:10.730Z,55.38
2024-01-15T05:40:14.443Z,55.26
2024-01-15T05:42:17.041Z,55.48
2024-01-15T05:44:19.356Z,55.57
2024-01-15T05:46:21.734Z,55.28
2024-01-15T05:48:24.176Z,55.69
2024-01-15T05:50:26.774Z,55.42
2024-01-15T05:52:28.987Z,55.58
2024-01-15T05:54:31.434Z,55.43
2024-01-15T05:56:33.826Z,55.52
2024-01-15T05:58:36.289Z,55.92
2024-01-15T06:00:39.736Z,55.51
2024-01-15T06:02:42.303Z,55.60
2024-01-15T06:04:44.769Z,55.48
2024-01-15T06:06:47.149Z,55.23
2024-01-15T06:08:49.590Z,55.02
2024-01-15T06:10:51.854Z,55.45
2024-01-15T06:12:54.296Z,55.57
2024-01-15T06:14:56.712Z,55.70
2024-01-15T06:16:59.020Z,55.55
2024-01-15T06:19:01.430Z,55.50
2024-01-15T06:21:04.000Z,55.89
2024-01-15T06:23:06.371Z,55.45
2024-01-15T06:25:10.111Z,55.48
2024-01-15T06:27:12.527Z,55.94
2024-01-15T06:29:14.869Z,55.69
2024-01-15T06:31:17.303Z,55.97
2024-01-15T06:33:19.782Z,55.61
2024-01-15T06:35:23.822Z,55.70
2024-01-15T06:37:26.667Z,55.93
2024-01-15T06:39:29.039Z,55.81
2024-01-15T06:41:31.532Z,55.65
2024-01-15T06:43:33.939Z,56.17
2024-01-15T06:45:36.421Z,56.56
2024-01-15T06:47:39.059Z,56.59
2024-01-15T06:49:41.635Z,57.25
2024-01-15T06:51:45.806Z,57.17
2024-01-15T06:53:49.661Z,57.81
2024-01-15T06:55:52.758Z,57.95
2024-01-15T06:57:55.125Z,58.40
2024-01-15T06:59:57.603Z,58.30
2024-01-15T07:02:01.006Z,58.93
2024-01-15T07:04:03.648Z,58.58
2024-01-15T07:06:07.228Z,59.47
2024-01-15T07:08:09.649Z,59.20
2024-01-15T07:10:12.081Z,59.33
2024-01-15T07:12:14.504Z,59.40
2024-01-15T07:14:17.051Z,59.13
2024-01-15T07:16:34.327Z,59.34
2024-01-15T07:18:40.179Z,59.43
2024-01-15T07:20:42.810Z,59.75
2024-01-15T07:22:45.563Z,60.39
2024-01-15T07:24:48.059Z,60.01
2024-01-15T07:26:50.727Z,59.68
2024-01-15T07:28:53.259Z,59.99
2024-01-15T07:30:56.135Z,60.58
2024-01-15T07:32:58.632Z,60.32
2024-01-15T07:35:01.196Z,60.07
2024-01-15T07:37:03.717Z,61.05
2024-01-15T07:39:06.138Z,61.48
2024-01-15T07:41:08.459Z,61.36
2024-01-15T07:43:10.879Z,61.92
2024-01-15T07:45:13.313Z,62.13
2024-01-15T07:47:15.836Z,61.60
2024-01-15T07:49:18.875Z,61.52
2024-01-15T07:51:21.329Z,62.00
2024-01-15T07:53:23.978Z,62.04
2024-01-15T07:55:26.383Z,62.15
2024-01-15T07:57:28.986Z,62.20
2024-01-15T07:59:31.394Z,62.28
2024-01-15T08:01:33.787Z,62.51
2024-01-15T08:03:36.206Z,62.50
2024-01-15T08:05:38.679Z,62.57
2024-01-15T08:07:41.009Z,62.94
2024-01-15T08:09:43.606Z,62.53
2024-01-15T08:11:45.952Z,62.60
2024-01-15T08:13:48.434Z,63.28
2024-01-15T08:15:51.839Z,63.08
2024-01-15T08:17:54.385Z,62.96
2024-01-15T08:19:56.823Z,63.48
2024-01-15T08:21:59.318Z,63.31
2024-01-15T08:24:03.652Z,63.56
2024-01-15T08:26:06.462Z,63.72
2024-01-15T08:28:09.760Z,63.85
2024-01-15T08:30:12.559Z,63.18
2024-01-15T08:32:16.784Z,63.55
2024-01-15T08:34:19.461Z,64.55
2024-01-15T08:36:23.279Z,64.59
2024-01-15T08:38:26.779Z,64.15
2024-01-15T08:40:29.018Z,64.46
2024-01-15T08:42:31.843Z,64.33
2024-01-15T08:44:34.330Z,64.21
2024-01-15T08:46:36.682Z,64.50
2024-01-15T08:48:39.090Z,64.47
2024-01-15T08:50:41.534Z,64.45
2024-01-15T08:52:43.871Z,64.63
2024-01-15T08:54:46.387Z,64.62
2024-01-15T08:56:48.813Z,65.17
2024-01-15T08:58:51.526Z,66.31
2024-01-15T09:00:54.142Z,66.43
2024-01-15T09:02:57.894Z,66.05
2024-01-15T09:05:00.887Z,66.21
2024-01-15T09:07:03.661Z,66.85
2024-01-15T09:09:05.926Z,66.85
2024-01-15T09:11:08.325Z,68.35
2024-01-15T09:13:10.589Z,68.54
2024-01-15T09:15:13.466Z,66.69
2024-01-15T09:17:15.810Z,67.19
2024-01-15T09:19:18.375Z,66.07
2024-01-15T09:21:21.198Z,66.40
2024-01-15T09:23:23.628Z,66.25
2024-01-15T09:25:27.059Z,66.53
2024-01-15T09:27:29.404Z,67.22
2024-01-15T09:29:31.856Z,68.01
2024-01-15T09:31:34.418Z,66.81
2024-01-15T09:33:36.964Z,67.96
2024-01-15T09:35:39.386Z,67.08
2024-01-15T09:37:47.794Z,68.58
2024-01-15T09:39:51.478Z,67.24
2024-01-15T09:41:55.308Z,67.54
2024-01-15T09:43:57.517Z,67.27
2024-01-15T09:46:00.433Z,67.29
2024-01-15T09:48:03.256Z,67.20
2024-01-15T09:50:06.575Z,67.04
2024-01-15T09:52:12.061Z,67.14
2024-01-15T09:54:18.464Z,67.88
2024-01-15T09:56:21.012Z,67.63
2024-01-15T09:58:23.619Z,68.10
2024-01-15T10:00:27.465Z,67.69
2024-01-15T10:02:29.991Z,67.59
2024-01-15T10:04:32.532Z,68.56
2024-01-15T10:06:35.712Z,68.17
2024-01-15T10:08:38.512Z,68.04
2024-01-15T10:10:47.613Z,67.75
2024-01-15T10:12:53.138Z,68.20
2024-01-15T10:14:58.132Z,67.63
2024-01-15T10:17:00.974Z,68.04
2024-01-15T10:19:04.198Z,67.41
2024-01-15T10:21:30.153Z,68.47
2024-01-15T10:23:33.964Z,68.04
2024-01-15T10:25:37.296Z,68.05
2024-01-15T10:27:39.676Z,67.86
2024-01-15T10:29:43.898Z,67.99
2024-01-15T10:31:47.308Z,67.76
2024-01-15T10:33:50.759Z,67.83
2024-01-15T10:36:16.995Z,68.40
2024-01-15T10:38:21.486Z,67.83
2024-01-15T10:40:24.287Z,67.37
2024-01-15T10:42:26.618Z,67.90
2024-01-15T10:44:28.933Z,67.39
2024-01-15T10:46:33.011Z,67.84
2024-01-15T10:48:37.171Z,67.66
2024-01-15T10:50:39.915Z,67.97
2024-01-15T10:52:43.181Z,67.62
2024-01-15T10:54:47.272Z,67.37
2024-01-15T10:56:51.013Z,67.34
2024-01-15T10:58:58.857Z,67.72
2024-01-15T11:01:04.323Z,67.61
2024-01-15T11:03:07.873Z,67.14
2024-01-15T11:05:10.297Z,67.67
2024-01-15T11:07:13.463Z,66.85
2024-01-15T11:09:16.980Z,67.26
2024-01-15T11:11:19.841Z,67.99
2024-01-15T11:13:26.319Z,67.79
2024-01-15T11:15:30.785Z,67.78
2024-01-15T11:18:01.466Z,68.27
2024-01-15T11:20:07.972Z,67.57
2024-01-15T11:22:29.545Z,67.46
2024-01-15T11:24:55.122Z,67.83
2024-01-15T11:26:58.268Z,67.36
2024-01-15T11:29:02.841Z,68.26
2024-01-15T11:31:05.542Z,67.84
2024-01-15T11:33:09.051Z,67.98
2024-01-15T11:35:12.848Z,67.86
2024-01-15T11:37:15.742Z,68.24
2024-01-15T11:39:35.967Z,68.15
2024-01-15T11:41:38.738Z,67.57
2024-01-15T11:43:41.154Z,67.94
2024-01-15T11:45:43.987Z,68.05
2024-01-15T11:48:30.813Z,67.71
2024-01-15T11:50:33.336Z,67.91
2024-01-15T11:52:37.393Z,67.84
2024-01-15T11:54:41.578Z,67.78
2024-01-15T11:56:44.068Z,67.82
2024-01-15T11:58:46.930Z,67.27
2024-01-15T12:00:54.589Z,68.21
2024-01-15T12:02:57.522Z,67.55
2024-01-15T12:05:00.004Z,68.18
2024-01-15T12:07:03.255Z,68.38
2024-01-15T12:09:09.767Z,67.61
2024-01-15T12:11:17.004Z,67.78
2024-01-15T12:13:19.407Z,67.33
2024-01-15T12:15:21.988Z,68.85
2024-01-15T12:17:24.848Z,67.85
2024-01-15T12:19:27.413Z,67.71
2024-01-15T12:21:30.317Z,68.67
2024-01-15T12:23:32.909Z,67.71
2024-01-15T12:25:35.925Z,68.14
2024-01-15T12:27:39.453Z,68.17
2024-01-15T12:29:41.815Z,68.46
2024-01-15T12:31:44.213Z,67.62
2024-01-15T12:33:46.690Z,67.48
2024-01-15T12:35:49.189Z,66.85
2024-01-15T12:37:51.541Z,66.78
2024-01-15T12:39:56.168Z,67.08
2024-01-15T12:41:59.194Z,66.72
2024-01-15T12:44:01.593Z,67.04
2024-01-15T12:46:04.262Z,66.41
2024-01-15T12:48:07.209Z,66.91
2024-01-15T12:50:19.363Z,66.54
2024-01-15T12:52:23.194Z,66.33
2024-01-15T12:54:25.982Z,66.33
2024-01-15T12:56:28.259Z,66.65
2024-01-15T12:58:30.787Z,66.90
2024-01-15T13:00:33.106Z,66.76
2024-01-15T13:02:36.241Z,66.79
2024-01-15T13:04:38.940Z,66.47
2024-01-15T13:06:41.394Z,66.19
2024-01-15T13:08:43.671Z,66.48
2024-01-15T13:10:46.127Z,66.26
2024-01-15T13:12:48.542Z,66.52
2024-01-15T13:14:50.991Z,66.39
2024-01-15T13:16:54.986Z,66.56
2024-01-15T13:19:00.415Z,66.37
2024-01-15T13:21:04.174Z,66.56
2024-01-15T13:23:07.163Z,66.38
2024-01-15T13:25:10.261Z,66.60
2024-01-15T13:27:13.296Z,66.89
2024-01-15T13:29:16.359Z,66.32
2024-01-15T13:31:18.762Z,66.40
2024-01-15T13:33:21.531Z,66.30
2024-01-15T13:35:23.868Z,66.21
2024-01-15T13:37:26.427Z,65.88
2024-01-15T13:39:29.023Z,65.98
2024-01-15T13:41:31.412Z,65.94
2024-01-15T13:43:34.408Z,65.95
2024-01-15T13:45:38.790Z,66.04
2024-01-15T13:47:41.672Z,65.84
2024-01-15T13:49:44.114Z,65.96
2024-01-15T13:51:46.472Z,66.21
2024-01-15T13:53:48.810Z,66.32
2024-01-15T13:55:51.103Z,65.90
2024-01-15T13:57:53.762Z,66.11
2024-01-15T13:59:56.537Z,65.93
2024-01-15T14:01:58.958Z,66.09
2024-01-15T14:04:01.930Z,66.19
2024-01-15T14:06:05.560Z,66.32
2024-01-15T14:08:09.433Z,66.52
2024-01-15T14:10:11.872Z,66.63
2024-01-15T14:12:14.341Z,66.02
2024-01-15T14:14:18.441Z,66.45
2024-01-15T14:16:25.844Z,66.73
2024-01-15T14:18:32.822Z,66.68
2024-01-15T14:20:37.422Z,66.56
2024-01-15T14:22:39.848Z,66.35
2024-01-15T14:24:42.197Z,66.20
2024-01-15T14:26:44.925Z,66.48
2024-01-15T14:28:49.723Z,66.45
2024-01-15T14:30:53.570Z,66.84
2024-01-15T14:32:56.592Z,66.69
2024-01-15T14:34:59.233Z,66.37
2024-01-15T14:37:01.578Z,65.96
2024-01-15T14:39:04.224Z,66.07
2024-01-15T14:41:06.693Z,66.04
2024-01-15T14:43:09.724Z,66.62
2024-01-15T14:45:15.019Z,66.45
2024-01-15T14:47:17.439Z,66.28
2024-01-15T14:49:19.895Z,66.26
2024-01-15T14:51:22.436Z,65.90
2024-01-15T14:53:24.743Z,65.84
2024-01-15T14:55:27.234Z,65.73
2024-01-15T14:57:29.777Z,65.62
2024-01-15T14:59:32.213Z,65.74
2024-01-15T15:01:34.842Z,65.43
2024-01-15T15:03:37.511Z,65.65
2024-01-15T15:05:39.849Z,66.05
2024-01-15T15:07:42.200Z,66.16
2024-01-15T15:09:44.558Z,66.42
2024-01-15T15:11:46.967Z,66.13
2024-01-15T15:13:49.472Z,66.04
2024-01-15T15:15:51.887Z,65.61
2024-01-15T15:17:54.283Z,65.81
2024-01-15T15:19:57.254Z,65.74
2024-01-15T15:22:23.513Z,65.90
2024-01-15T15:24:26.087Z,65.84
2024-01-15T15:26:28.613Z,65.99
2024-01-15T15:28:30.885Z,65.82
2024-01-15T15:30:33.504Z,65.44
2024-01-15T15:32:35.947Z,65.47
2024-01-15T15:34:38.461Z,65.34
2024-01-15T15:36:40.922Z,65.56
2024-01-15T15:38:43.312Z,65.44
2024-01-15T15:40:45.669Z,64.97
2024-01-15T15:42:48.104Z,65.29
2024-01-15T15:44:52.650Z,65.06
2024-01-15T15:46:55.215Z,65.37
2024-01-15T15:48:57.703Z,64.92
2024-01-15T15:51:01.548Z,64.99
2024-01-15T15:53:04.861Z,64.96
2024-01-15T15:55:09.373Z,64.95
2024-01-15T15:57:12.272Z,65.17
2024-01-15T15:59:14.817Z,65.12
2024-01-15T16:01:17.291Z,64.89
2024-01-15T16:03:19.955Z,65.34
2024-01-15T16:05:31.323Z,65.35
2024-01-15T16:07:40.250Z,65.46
2024-01-15T16:09:42.710Z,65.56
2024-01-15T16:11:45.620Z,65.29
2024-01-15T16:13:48.039Z,65.18
2024-01-15T16:15:53.108Z,65.58
2024-01-15T16:23:19.815Z,65.25
2024-01-15T16:23:31.504Z,65.17
2024-01-15T16:23:46.674Z,65.34
2024-01-15T16:25:22.789Z,64.76
2024-01-15T16:27:25.212Z,64.62
2024-01-15T16:29:27.616Z,64.58
2024-01-15T16:31:29.997Z,64.88
2024-01-15T16:33:32.498Z,65.02
2024-01-15T16:35:34.933Z,64.83
2024-01-15T16:37:37.476Z,64.69
2024-01-15T16:39:39.860Z,64.55
2024-01-15T16:41:42.187Z,64.63
2024-01-15T16:43:44.696Z,64.90
2024-01-15T16:45:47.306Z,65.15
2024-01-15T16:47:49.806Z,64.42
2024-01-15T16:49:52.233Z,64.47
2024-01-15T16:51:54.642Z,64.21
2024-01-15T16:53:56.994Z,64.17
2024-01-15T16:55:59.569Z,64.44
2024-01-15T16:58:02.082Z,63.76
2024-01-15T17:00:04.718Z,63.85
2024-01-15T17:02:07.158Z,64.02
2024-01-15T17:04:09.884Z,63.45
2024-01-15T17:06:12.076Z,63.46
2024-01-15T17:08:14.519Z,63.30
2024-01-15T17:10:16.780Z,63.43
2024-01-15T17:12:19.333Z,63.72
2024-01-15T17:14:21.681Z,63.49
2024-01-15T17:16:24.105Z,63.70
2024-01-15T17:18:26.822Z,64.29
2024-01-15T17:20:29.447Z,64.00
2024-01-15T17:22:32.359Z,64.41
2024-01-15T17:24:34.888Z,64.58
2024-01-15T17:26:37.410Z,64.81
2024-01-15T17:28:39.876Z,64.90
2024-01-15T17:30:42.255Z,64.55
2024-01-15T17:32:44.903Z,65.09
2024-01-15T17:34:47.838Z,65.45
2024-01-15T17:36:50.343Z,66.19
2024-01-15T17:38:55.010Z,66.50
2024-01-15T17:41:00.421Z,65.94
2024-01-15T17:43:02.889Z,65.94
2024-01-15T17:45:08.000Z,65.93
2024-01-15T17:47:10.299Z,66.04
2024-01-15T17:49:12.850Z,65.78
2024-01-15T17:51:38.421Z,66.40
2024-01-15T17:53:40.774Z,65.96
2024-01-15T17:55:43.760Z,65.96
2024-01-15T17:57:46.771Z,66.07
2024-01-15T17:59:49.094Z,66.83
2024-01-15T18:01:53.088Z,67.08
2024-01-15T18:03:57.558Z,66.73
2024-01-15T18:06:03.177Z,66.93
2024-01-15T18:08:05.901Z,66.70
2024-01-15T18:10:08.917Z,66.56
2024-01-15T18:12:15.564Z,66.39
2024-01-15T18:14:19.013Z,66.27
2024-01-15T18:16:29.222Z,66.65
2024-01-15T18:18:35.217Z,66.77
2024-01-15T18:20:37.822Z,66.96
2024-01-15T18:22:40.202Z,67.61
2024-01-15T18:24:42.799Z,67.43
2024-01-15T18:26:45.088Z,68.14
2024-01-15T18:28:50.425Z,67.62
2024-01-15T18:30:53.184Z,67.07
2024-01-15T18:32:55.700Z,66.90
2024-01-15T18:34:58.283Z,67.19
2024-01-15T18:37:00.985Z,66.86
2024-01-15T18:39:07.363Z,67.00
2024-01-15T18:41:12.595Z,66.69
2024-01-15T18:43:15.484Z,66.69
2024-01-15T18:45:18.162Z,66.95
2024-01-15T18:47:20.983Z,66.69
2024-01-15T18:49:24.670Z,66.92
2024-01-15T18:51:30.764Z,66.59
2024-01-15T18:53:38.449Z,66.40
2024-01-15T18:55:40.831Z,66.91
2024-01-15T18:57:43.843Z,66.70
2024-01-15T18:59:52.049Z,67.19
2024-01-15T19:01:54.366Z,67.62
2024-01-15T19:03:57.813Z,67.17
2024-01-15T19:06:00.425Z,67.29
2024-01-15T19:08:02.819Z,67.39
2024-01-15T19:10:05.550Z,67.06
2024-01-15T19:12:13.834Z,67.24
2024-01-15T19:14:16.144Z,67.51
2024-01-15T19:16:23.611Z,67.00
2024-01-15T19:18:27.984Z,66.77
2024-01-15T19:20:30.358Z,67.03
2024-01-15T19:22:35.247Z,67.36
2024-01-15T19:24:39.099Z,67.16
2024-01-15T19:26:50.177Z,66.99
2024-01-15T19:28:52.575Z,67.67
2024-01-15T19:30:55.590Z,67.42
2024-01-15T19:33:01.151Z,67.03
2024-01-15T19:35:03.943Z,67.05
2024-01-15T19:37:06.547Z,67.26
2024-01-15T19:39:11.568Z,67.40
2024-01-15T19:41:15.676Z,67.02
2024-01-15T19:43:18.123Z,67.18
2024-01-15T19:45:20.590Z,66.63
2024-01-15T19:47:34.962Z,66.77
2024-01-15T19:49:38.912Z,66.31
2024-01-15T19:51:44.806Z,66.32
2024-01-15T19:53:47.996Z,66.68
2024-01-15T19:55:53.212Z,67.03
2024-01-15T19:57:55.590Z,67.02
2024-01-15T20:00:00.318Z,66.55
2024-01-15T20:02:02.757Z,66.69
2024-01-15T20:04:05.254Z,66.93
2024-01-15T20:06:13.003Z,66.84
2024-01-15T20:08:15.530Z,66.80
2024-01-15T20:10:20.084Z,66.38
2024-01-15T20:12:22.779Z,66.80
2024-01-15T20:14:28.293Z,67.01
2024-01-15T20:16:30.704Z,66.52
2024-01-15T20:18:34.185Z,66.45
2024-01-15T20:20:37.055Z,66.19
2024-01-15T20:22:39.413Z,65.63
2024-01-15T20:24:42.006Z,65.36
2024-01-15T20:26:44.724Z,65.30
2024-01-15T20:28:48.112Z,64.96
2024-01-15T20:30:51.259Z,64.94
2024-01-15T20:32:54.270Z,65.41
2024-01-15T20:34:56.558Z,65.80
2024-01-15T20:37:01.711Z,65.93
2024-01-15T20:39:29.410Z,65.91
2024-01-15T20:41:32.517Z,65.91
2024-01-15T20:43:37.631Z,65.67
2024-01-15T20:45:39.952Z,65.14
2024-01-15T20:47:42.332Z,65.66
2024-01-15T20:49:44.761Z,65.07
2024-01-15T20:51:47.417Z,65.40
2024-01-15T20:53:52.345Z,65.55
2024-01-15T20:55:54.649Z,65.44
2024-01-15T20:57:57.022Z,65.74
2024-01-15T21:00:00.546Z,65.64
2024-01-15T21:02:03.112Z,65.48
2024-01-15T21:04:28.993Z,65.55
2024-01-15T21:06:32.599Z,65.57
2024-01-15T21:08:36.057Z,65.98
2024-01-15T21:10:38.712Z,66.08
2024-01-15T21:12:42.107Z,65.86
2024-01-15T21:14:44.642Z,65.93
2024-01-15T21:16:48.278Z,66.18
2024-01-15T21:18:51.963Z,66.36
2024-01-15T21:20:55.930Z,67.21
2024-01-15T21:22:59.349Z,66.48
2024-01-15T21:25:01.673Z,66.66
2024-01-15T21:27:05.604Z,66.39
2024-01-15T21:29:08.153Z,66.23
2024-01-15T21:31:11.636Z,67.00
2024-01-15T21:33:14.185Z,66.37
2024-01-15T21:35:16.761Z,66.28
2024-01-15T21:37:19.230Z,66.66
2024-01-15T21:39:21.503Z,66.65
2024-01-15T21:41:23.830Z,66.99
2024-01-15T21:43:26.260Z,66.93
2024-01-15T21:45:28.478Z,66.21
2024-01-15T21:47:31.286Z,66.47
2024-01-15T21:49:33.543Z,66.46
2024-01-15T21:51:36.372Z,65.90
2024-01-15T21:53:39.081Z,65.90
2024-01-15T21:55:41.642Z,66.11
2024-01-15T21:57:43.902Z,66.04
2024-01-15T21:59:46.453Z,66.11
2024-01-15T22:02:04.877Z,66.49
2024-01-15T22:04:08.847Z,67.06
2024-01-15T22:06:12.911Z,66.42
2024-01-15T22:08:21.529Z,66.66
2024-01-15T22:10:23.955Z,66.81
2024-01-15T22:12:26.340Z,66.43
2024-01-15T22:14:31.377Z,66.60
2024-01-15T22:16:33.834Z,66.38
2024-01-15T22:18:36.761Z,66.53
2024-01-15T22:20:41.335Z,66.62
2024-01-15T22:22:43.711Z,66.41
2024-01-15T22:24:46.502Z,66.31
2024-01-15T22:26:50.140Z,66.26
2024-01-15T22:28:52.749Z,66.36
2024-01-15T22:30:55.408Z,66.83
2024-01-15T22:32:57.966Z,66.48
2024-01-15T22:35:00.678Z,67.02
2024-01-15T22:37:03.247Z,66.74
2024-01-15T22:39:05.688Z,67.00
2024-01-15T22:41:08.181Z,67.40
2024-01-15T22:43:10.629Z,67.04
2024-01-15T22:45:16.800Z,67.18
2024-01-15T22:47:20.104Z,67.13
2024-01-15T22:49:23.521Z,67.36
2024-01-15T22:51:25.997Z,67.54
2024-01-15T22:53:28.344Z,67.64
2024-01-15T22:55:30.732Z,67.95
2024-01-15T22:57:33.480Z,67.47
2024-01-15T22:59:36.610Z,67.91
2024-01-15T23:01:39.751Z,67.84
2024-01-15T23:03:42.799Z,67.79
2024-01-15T23:05:45.854Z,67.18
2024-01-15T23:07:52.333Z,66.89
2024-01-15T23:09:54.783Z,67.06
2024-01-15T23:11:57.099Z,67.31
2024-01-15T23:13:59.621Z,66.83
2024-01-15T23:16:02.311Z,66.51
2024-01-15T23:18:08.375Z,66.71
2024-01-15T23:20:12.583Z,66.59
2024-01-15T23:22:15.196Z,66.49
2024-01-15T23:24:17.506Z,66.65
2024-01-15T23:26:20.479Z,66.39
2024-01-15T23:28:22.931Z,66.62
2024-01-15T23:30:25.198Z,66.77
2024-01-15T23:32:27.708Z,66.71
2024-01-15T23:34:30.257Z,66.50
2024-01-15T23:36:32.787Z,66.74
2024-01-15T23:38:35.169Z,66.32
2024-01-15T23:40:37.561Z,66.66
2024-01-15T23:42:41.012Z,65.95
2024-01-15T23:44:43.443Z,66.19
2024-01-15T23:46:46.311Z,66.12
2024-01-15T23:48:48.945Z,65.89
2024-01-15T23:50:51.443Z,65.73
2024-01-15T23:52:53.829Z,65.93
2024-01-15T23:54:56.174Z,65.73
2024-01-15T23:56:59.268Z,65.80
2024-01-15T23:59:01.815Z,65.66
